Terminal Aerodrome Forecast
Issued by NWS

Home | Current Version | Previous Version | Text Only | Print | Product List | Glossary On
Versions: 1 2 3 4 5 6 7 8 9 10 11 12 13 14 15 16
000
FTUS43 KDTX 262320
TAFMBS
TAF
KMBS 262320Z 2700/2724 30010KT P6SM SCT035 OVC045
     FM270600 34012KT P6SM SCT025 OVC035
     FM271500 01011KT P6SM BKN035
     FM271900 03010KT P6SM OVC040=

USA.gov is the U.S. government's official web portal to all federal, state and local government web resources and services.